Time;durP1;ratioP1;P1;durP2;ratioP2;P2;SDS_P1;SDS_P2;PMS_P1;PMS_P2;Temp;Humidity;BMP_temperature;BMP_pressure;BME280_temperature;BME280_humidity;BME280_pressure;Samples;Min_cycle;Max_cycle;Signal;HPM_P1;HPM_P2
2021/08/08 00:01:36;;;;;;;5.27;2.37;;;;;;;;;;5094180;28;20950;-85
2021/08/08 00:04:04;;;;;;;2.23;2.00;;;;;;;;;;5094254;28;20922;-86
2021/08/08 00:06:33;;;;;;;5.30;2.20;;;;;;;;;;5094454;28;20449;-82
2021/08/08 00:09:00;;;;;;;4.27;2.33;;;;;;;;;;5094342;28;20469;-84
2021/08/08 00:11:27;;;;;;;3.47;2.40;;;;;;;;;;5094598;28;20450;-88
2021/08/08 00:13:55;;;;;;;4.20;2.53;;;;;;;;;;5093515;28;20440;-85
2021/08/08 00:16:22;;;;;;;3.73;2.33;;;;;;;;;;5093378;28;20944;-87
2021/08/08 00:18:49;;;;;;;2.63;2.13;;;;;;;;;;5094146;28;20960;-86
2021/08/08 00:21:16;;;;;;;3.40;2.33;;;;;;;;;;5094257;28;20471;-85
2021/08/08 00:23:45;;;;;;;4.37;2.47;;;;;;;;;;5093323;28;20469;-86
2021/08/08 00:26:12;;;;;;;3.40;2.97;;;;;;;;;;5093546;28;20523;-85
2021/08/08 00:28:39;;;;;;;2.70;2.50;;;;;;;;;;5095933;28;20474;-87
2021/08/08 00:31:06;;;;;;;2.80;2.00;;;;;;;;;;5099693;28;20535;-89
2021/08/08 00:33:34;;;;;;;4.37;2.17;;;;;;;;;;5094849;28;20447;-86
2021/08/08 00:36:02;;;;;;;2.73;2.33;;;;;;;;;;5095978;28;20451;-86
2021/08/08 00:38:29;;;;;;;2.10;1.90;;;;;;;;;;5097108;28;20516;-87
2021/08/08 00:40:57;;;;;;;2.10;1.90;;;;;;;;;;5095441;28;20535;-89
2021/08/08 00:43:25;;;;;;;2.97;2.17;;;;;;;;;;5095782;28;20440;-87
2021/08/08 00:45:52;;;;;;;2.70;2.20;;;;;;;;;;5098076;28;20442;-89
2021/08/08 00:48:19;;;;;;;2.80;1.90;;;;;;;;;;5102363;28;20515;-89
2021/08/08 00:50:46;;;;;;;2.23;2.00;;;;;;;;;;5101770;28;20479;-80
2021/08/08 00:53:13;;;;;;;4.03;1.90;;;;;;;;;;5098956;28;20444;-89
2021/08/08 00:55:41;;;;;;;2.50;1.73;;;;;;;;;;5099913;28;20446;-84
2021/08/08 00:58:09;;;;;;;2.63;2.10;;;;;;;;;;5099575;28;20942;-87
2021/08/08 01:00:37;;;;;;;3.77;2.20;;;;;;;;;;5100097;28;20531;-85
2021/08/08 01:03:07;;;;;;;2.20;1.90;;;;;;;;;;5098589;28;20432;-85
2021/08/08 01:05:36;;;;;;;3.27;2.30;;;;;;;;;;5098634;28;20444;-83
2021/08/08 01:08:06;;;;;;;2.33;2.10;;;;;;;;;;5098784;28;20477;-81
2021/08/08 01:10:33;;;;;;;2.73;2.30;;;;;;;;;;5097929;28;20480;-83
2021/08/08 01:13:01;;;;;;;2.90;2.10;;;;;;;;;;5097306;28;20454;-83
2021/08/08 01:15:30;;;;;;;3.93;2.70;;;;;;;;;;5097276;28;20439;-81
2021/08/08 01:17:58;;;;;;;3.07;2.23;;;;;;;;;;5097850;28;20504;-86
2021/08/08 01:20:26;;;;;;;2.80;2.60;;;;;;;;;;5097297;28;20535;-82
2021/08/08 01:22:54;;;;;;;3.67;2.40;;;;;;;;;;5098720;28;20439;-84
2021/08/08 01:25:23;;;;;;;5.03;2.60;;;;;;;;;;5097084;28;20457;-84
2021/08/08 01:27:52;;;;;;;3.50;2.47;;;;;;;;;;5097103;28;20439;-83
2021/08/08 01:30:19;;;;;;;5.30;2.70;;;;;;;;;;5097270;28;20447;-83
2021/08/08 01:32:46;;;;;;;3.40;2.40;;;;;;;;;;5096831;28;20518;-81
2021/08/08 01:35:14;;;;;;;5.33;2.60;;;;;;;;;;5096785;28;20436;-82
2021/08/08 01:37:41;;;;;;;3.07;2.47;;;;;;;;;;5096762;28;20440;-84
2021/08/08 01:40:10;;;;;;;3.37;3.07;;;;;;;;;;5096960;28;20526;-81
2021/08/08 01:42:39;;;;;;;3.23;3.03;;;;;;;;;;5096368;28;20446;-82
2021/08/08 01:45:07;;;;;;;5.40;3.00;;;;;;;;;;5097493;28;20436;-84
2021/08/08 01:47:38;;;;;;;2.50;2.40;;;;;;;;;;5097906;28;20523;-75
2021/08/08 01:50:05;;;;;;;4.80;3.07;;;;;;;;;;5098174;28;20555;-79
2021/08/08 01:52:32;;;;;;;4.87;3.00;;;;;;;;;;5097062;28;20476;-81
2021/08/08 01:55:00;;;;;;;3.17;2.87;;;;;;;;;;5095736;28;20451;-79
2021/08/08 01:57:27;;;;;;;5.13;3.33;;;;;;;;;;5095977;28;20446;-80
2021/08/08 01:59:55;;;;;;;3.50;2.90;;;;;;;;;;5095997;28;20931;-77
2021/08/08 02:02:23;;;;;;;3.27;2.97;;;;;;;;;;5096486;28;20440;-77
2021/08/08 02:04:50;;;;;;;2.93;2.63;;;;;;;;;;5096082;28;20444;-83
2021/08/08 02:07:18;;;;;;;3.33;2.73;;;;;;;;;;5096012;28;20439;-82
2021/08/08 02:09:45;;;;;;;3.97;2.87;;;;;;;;;;5096289;28;20570;-83
2021/08/08 02:12:13;;;;;;;3.03;2.83;;;;;;;;;;5096672;28;20438;-83
2021/08/08 02:14:40;;;;;;;4.60;2.80;;;;;;;;;;5096825;28;20452;-82
2021/08/08 02:17:09;;;;;;;3.23;2.90;;;;;;;;;;5096468;28;20929;-79
2021/08/08 02:19:36;;;;;;;5.57;3.17;;;;;;;;;;5095512;28;20508;-82
2021/08/08 02:22:04;;;;;;;4.53;3.03;;;;;;;;;;5096629;28;20807;-81
2021/08/08 02:24:31;;;;;;;3.37;2.70;;;;;;;;;;5095740;28;20467;-77
2021/08/08 02:26:59;;;;;;;7.90;3.10;;;;;;;;;;5095691;28;20779;-82
2021/08/08 02:29:26;;;;;;;5.77;3.47;;;;;;;;;;5095460;28;20482;-79
2021/08/08 02:31:53;;;;;;;3.87;3.53;;;;;;;;;;5095482;28;20790;-82
2021/08/08 02:34:22;;;;;;;4.40;3.10;;;;;;;;;;5095594;28;20457;-80
2021/08/08 02:36:49;;;;;;;5.23;4.27;;;;;;;;;;5095337;28;20516;-77
2021/08/08 02:39:16;;;;;;;4.23;3.77;;;;;;;;;;5095567;28;20928;-79
2021/08/08 02:41:43;;;;;;;7.60;3.80;;;;;;;;;;5095021;28;20437;-78
2021/08/08 02:44:10;;;;;;;5.10;3.97;;;;;;;;;;5095102;28;20440;-79
2021/08/08 02:46:38;;;;;;;4.13;3.83;;;;;;;;;;5095161;28;20436;-78
2021/08/08 02:49:05;;;;;;;6.80;4.47;;;;;;;;;;5095202;28;20467;-79
2021/08/08 02:51:33;;;;;;;5.10;4.70;;;;;;;;;;5094767;28;20965;-77
2021/08/08 02:54:00;;;;;;;8.00;4.30;;;;;;;;;;5095528;28;20441;-80
2021/08/08 02:56:28;;;;;;;4.43;4.10;;;;;;;;;;5095159;28;20530;-79
2021/08/08 02:58:55;;;;;;;5.33;4.57;;;;;;;;;;5095151;28;20530;-78
2021/08/08 03:01:22;;;;;;;8.97;4.80;;;;;;;;;;5094959;28;20448;-76
2021/08/08 03:03:49;;;;;;;6.23;4.90;;;;;;;;;;5094839;28;20446;-74
2021/08/08 03:06:18;;;;;;;6.67;5.53;;;;;;;;;;5094884;28;20541;-77
2021/08/08 03:08:47;;;;;;;9.37;5.87;;;;;;;;;;5093692;28;20475;-77
2021/08/08 03:11:14;;;;;;;6.07;5.30;;;;;;;;;;5094220;28;20934;-75
2021/08/08 03:13:42;;;;;;;9.00;5.90;;;;;;;;;;5094681;28;20523;-77
2021/08/08 03:16:09;;;;;;;6.47;5.70;;;;;;;;;;5094608;28;20444;-79
2021/08/08 03:18:37;;;;;;;7.30;5.80;;;;;;;;;;5095031;28;20527;-75
2021/08/08 03:21:05;;;;;;;6.70;6.10;;;;;;;;;;5094216;28;20444;-76
2021/08/08 03:23:32;;;;;;;8.40;5.60;;;;;;;;;;5094109;28;20472;-75
2021/08/08 03:26:01;;;;;;;7.13;6.30;;;;;;;;;;5094109;28;20469;-75
2021/08/08 03:28:28;;;;;;;10.87;6.37;;;;;;;;;;5094350;28;20497;-73
2021/08/08 03:30:55;;;;;;;6.93;5.53;;;;;;;;;;5094094;28;20840;-76
2021/08/08 03:33:22;;;;;;;7.87;6.93;;;;;;;;;;5094279;28;20444;-75
2021/08/08 03:35:49;;;;;;;10.33;7.43;;;;;;;;;;5094217;28;20539;-76
2021/08/08 03:38:17;;;;;;;7.13;5.50;;;;;;;;;;5093892;28;20927;-75
2021/08/08 03:40:44;;;;;;;9.43;5.83;;;;;;;;;;5094192;28;20440;-80
2021/08/08 03:43:13;;;;;;;15.13;6.63;;;;;;;;;;5093803;28;20542;-77
2021/08/08 03:45:40;;;;;;;11.53;6.07;;;;;;;;;;5094598;28;20516;-76
2021/08/08 03:48:07;;;;;;;5.83;5.10;;;;;;;;;;5094060;28;20534;-77
2021/08/08 03:50:35;;;;;;;6.40;5.80;;;;;;;;;;5094175;28;20558;-75
2021/08/08 03:53:02;;;;;;;11.67;5.60;;;;;;;;;;5093967;28;20432;-77
2021/08/08 03:55:29;;;;;;;10.20;6.70;;;;;;;;;;5094698;28;20437;-74
2021/08/08 03:57:57;;;;;;;12.00;5.57;;;;;;;;;;5094635;28;20448;-77
2021/08/08 04:00:26;;;;;;;7.20;5.47;;;;;;;;;;5093661;28;20538;-75
2021/08/08 04:02:53;;;;;;;8.60;5.37;;;;;;;;;;5093550;28;20514;-75
2021/08/08 04:05:20;;;;;;;7.57;5.00;;;;;;;;;;5094048;28;20448;-75
2021/08/08 04:07:47;;;;;;;9.13;4.80;;;;;;;;;;5093959;28;20436;-76
2021/08/08 04:10:15;;;;;;;11.27;5.00;;;;;;;;;;5093650;28;20555;-72
2021/08/08 04:12:42;;;;;;;9.10;5.23;;;;;;;;;;5093393;28;20436;-74
2021/08/08 04:15:09;;;;;;;6.57;4.97;;;;;;;;;;5094490;28;20444;-76
2021/08/08 04:17:38;;;;;;;9.30;5.57;;;;;;;;;;5093846;28;20445;-74
2021/08/08 04:20:06;;;;;;;6.73;5.13;;;;;;;;;;5093343;28;20440;-73
2021/08/08 04:22:33;;;;;;;8.03;4.60;;;;;;;;;;5093545;28;20961;-74
2021/08/08 04:25:00;;;;;;;6.07;4.80;;;;;;;;;;5093807;28;20482;-76
2021/08/08 04:27:27;;;;;;;9.27;5.30;;;;;;;;;;5093278;28;20948;-75
2021/08/08 04:29:54;;;;;;;7.60;4.43;;;;;;;;;;5093180;28;21012;-76
2021/08/08 04:32:23;;;;;;;12.57;5.30;;;;;;;;;;5093783;28;20439;-77
2021/08/08 04:34:52;;;;;;;8.00;4.50;;;;;;;;;;5093488;28;20439;-75
2021/08/08 04:37:19;;;;;;;6.93;4.30;;;;;;;;;;5093562;28;20524;-74
2021/08/08 04:39:47;;;;;;;8.17;4.03;;;;;;;;;;5093638;28;20443;-73
2021/08/08 04:42:14;;;;;;;9.53;4.90;;;;;;;;;;5093381;28;20474;-75
2021/08/08 04:44:42;;;;;;;8.27;4.30;;;;;;;;;;5094062;28;20446;-76
2021/08/08 04:47:09;;;;;;;6.67;4.03;;;;;;;;;;5093432;28;20435;-77
2021/08/08 04:49:36;;;;;;;4.33;3.90;;;;;;;;;;5092896;28;20472;-78
2021/08/08 04:52:05;;;;;;;5.27;4.00;;;;;;;;;;5101984;28;20472;-78
2021/08/08 04:54:32;;;;;;;11.10;4.37;;;;;;;;;;5113625;28;20458;-77
2021/08/08 04:56:59;;;;;;;5.23;3.90;;;;;;;;;;5113242;28;20790;-75
2021/08/08 04:59:26;;;;;;;7.30;4.23;;;;;;;;;;5113954;28;20530;-76
2021/08/08 05:01:54;;;;;;;11.30;4.80;;;;;;;;;;5113335;28;20435;-74
2021/08/08 05:04:21;;;;;;;4.60;3.50;;;;;;;;;;5113973;28;20448;-76
2021/08/08 05:06:48;;;;;;;9.23;3.93;;;;;;;;;;5113997;28;20469;-77
2021/08/08 05:09:17;;;;;;;6.27;4.00;;;;;;;;;;5113412;28;20481;-78
2021/08/08 05:11:44;;;;;;;7.70;3.97;;;;;;;;;;5113524;28;20443;-76
2021/08/08 05:14:11;;;;;;;7.60;4.00;;;;;;;;;;5113437;28;20536;-74
2021/08/08 05:16:39;;;;;;;7.33;3.70;;;;;;;;;;5113353;28;20797;-78
2021/08/08 05:19:06;;;;;;;9.07;3.40;;;;;;;;;;5113014;28;20443;-74
2021/08/08 05:21:33;;;;;;;4.50;4.10;;;;;;;;;;5094270;28;20451;-75
2021/08/08 05:24:00;;;;;;;10.63;4.30;;;;;;;;;;5092492;28;20579;-76
2021/08/08 05:26:29;;;;;;;8.30;3.77;;;;;;;;;;5093798;28;20436;-74
2021/08/08 05:28:56;;;;;;;10.00;4.00;;;;;;;;;;5092637;28;20519;-75
2021/08/08 05:31:23;;;;;;;3.60;3.03;;;;;;;;;;5093301;28;20493;-70
2021/08/08 05:33:50;;;;;;;6.80;4.03;;;;;;;;;;5095469;28;20489;-77
2021/08/08 05:36:18;;;;;;;7.50;3.80;;;;;;;;;;5096608;28;20438;-76
2021/08/08 05:38:45;;;;;;;12.80;4.60;;;;;;;;;;5096485;28;20449;-75
2021/08/08 05:41:12;;;;;;;7.70;3.80;;;;;;;;;;5096869;28;20535;-76
2021/08/08 05:43:41;;;;;;;10.20;4.57;;;;;;;;;;5097020;28;20920;-76
2021/08/08 05:46:08;;;;;;;5.73;3.40;;;;;;;;;;5096455;28;20436;-78
2021/08/08 05:48:35;;;;;;;15.23;4.50;;;;;;;;;;5097770;28;20446;-79
2021/08/08 05:51:02;;;;;;;11.20;4.97;;;;;;;;;;5096225;28;20510;-76
2021/08/08 05:53:29;;;;;;;6.70;4.07;;;;;;;;;;5096573;28;20450;-77
2021/08/08 05:55:57;;;;;;;7.90;3.40;;;;;;;;;;5096239;28;20531;-76
2021/08/08 05:58:24;;;;;;;7.20;3.90;;;;;;;;;;5096652;28;20439;-78
2021/08/08 06:00:52;;;;;;;7.67;3.87;;;;;;;;;;5096587;28;20439;-78
2021/08/08 06:03:20;;;;;;;8.70;3.43;;;;;;;;;;5096418;28;20438;-80
2021/08/08 06:05:47;;;;;;;8.53;3.37;;;;;;;;;;5095670;28;20930;-77
2021/08/08 06:08:14;;;;;;;7.90;3.10;;;;;;;;;;5096571;28;20876;-77
2021/08/08 06:10:41;;;;;;;9.93;4.80;;;;;;;;;;5095879;28;20472;-75
2021/08/08 06:13:08;;;;;;;12.87;3.80;;;;;;;;;;5095898;28;20466;-76
2021/08/08 06:15:35;;;;;;;6.30;3.50;;;;;;;;;;5095912;28;20442;-80
2021/08/08 06:18:04;;;;;;;7.40;3.93;;;;;;;;;;5096159;28;20436;-81
2021/08/08 06:20:32;;;;;;;8.37;3.80;;;;;;;;;;5095379;28;20930;-80
2021/08/08 06:22:59;;;;;;;7.10;3.90;;;;;;;;;;5095539;28;20480;-84
2021/08/08 06:25:26;;;;;;;10.43;4.00;;;;;;;;;;5095729;28;20511;-76
2021/08/08 06:27:53;;;;;;;5.50;3.97;;;;;;;;;;5095934;28;20440;-78
2021/08/08 06:30:20;;;;;;;11.00;5.00;;;;;;;;;;5095432;28;20480;-80
2021/08/08 06:32:48;;;;;;;11.30;5.20;;;;;;;;;;5095781;28;20462;-80
2021/08/08 06:35:16;;;;;;;7.10;4.33;;;;;;;;;;5095812;28;20460;-78
2021/08/08 06:37:44;;;;;;;8.43;4.97;;;;;;;;;;5095707;28;20475;-81
2021/08/08 06:40:12;;;;;;;11.30;4.30;;;;;;;;;;5095004;28;20452;-80
2021/08/08 06:42:40;;;;;;;5.97;4.60;;;;;;;;;;5095329;28;20440;-80
2021/08/08 06:45:07;;;;;;;14.73;5.37;;;;;;;;;;5095342;28;20485;-78
2021/08/08 06:47:35;;;;;;;7.20;4.77;;;;;;;;;;5095246;28;20870;-77
2021/08/08 06:50:07;;;;;;;10.90;4.63;;;;;;;;;;5095006;28;20559;-79
2021/08/08 06:52:36;;;;;;;9.70;4.70;;;;;;;;;;5095257;28;20438;-80
2021/08/08 06:55:03;;;;;;;10.07;5.40;;;;;;;;;;5096117;28;20444;-87
2021/08/08 06:57:30;;;;;;;6.80;4.87;;;;;;;;;;5095331;28;20823;-78
2021/08/08 06:59:57;;;;;;;9.40;5.07;;;;;;;;;;5094724;28;20982;-78
2021/08/08 07:02:24;;;;;;;9.03;4.73;;;;;;;;;;5094896;28;20471;-79
2021/08/08 07:04:52;;;;;;;10.30;5.50;;;;;;;;;;5095368;28;20447;-79
2021/08/08 07:07:19;;;;;;;9.23;5.70;;;;;;;;;;5094466;28;20530;-81
2021/08/08 07:09:48;;;;;;;9.60;4.80;;;;;;;;;;5094709;28;20892;-79
2021/08/08 07:12:15;;;;;;;7.90;4.67;;;;;;;;;;5094479;28;20480;-78
2021/08/08 07:14:42;;;;;;;10.03;4.70;;;;;;;;;;5094306;28;20999;-78
2021/08/08 07:17:09;;;;;;;8.80;4.20;;;;;;;;;;5094576;28;20939;-79
2021/08/08 07:19:36;;;;;;;9.00;4.70;;;;;;;;;;5094839;28;20473;-78
2021/08/08 07:22:04;;;;;;;9.07;5.23;;;;;;;;;;5094598;28;20527;-78
2021/08/08 07:24:31;;;;;;;14.70;5.13;;;;;;;;;;5094111;28;20474;-78
2021/08/08 07:26:59;;;;;;;9.00;4.80;;;;;;;;;;5094921;28;20448;-78
2021/08/08 07:29:27;;;;;;;7.70;4.23;;;;;;;;;;5094051;28;20438;-78
2021/08/08 07:31:54;;;;;;;5.77;4.10;;;;;;;;;;5093978;28;20985;-78
2021/08/08 07:34:21;;;;;;;9.53;4.63;;;;;;;;;;5094275;28;20435;-79
2021/08/08 07:36:49;;;;;;;9.97;4.13;;;;;;;;;;5094677;28;20446;-79
2021/08/08 07:39:16;;;;;;;18.37;6.60;;;;;;;;;;5093886;28;20526;-78
2021/08/08 07:41:43;;;;;;;16.23;5.20;;;;;;;;;;5093904;28;20448;-77
2021/08/08 07:44:12;;;;;;;13.10;4.13;;;;;;;;;;5094117;28;20451;-79
2021/08/08 07:46:39;;;;;;;13.43;5.27;;;;;;;;;;5093814;28;20451;-78
2021/08/08 07:49:07;;;;;;;9.13;5.80;;;;;;;;;;5094142;28;20794;-79
2021/08/08 07:51:34;;;;;;;8.87;5.40;;;;;;;;;;5093684;28;20471;-78
2021/08/08 07:54:01;;;;;;;9.10;5.30;;;;;;;;;;5093962;28;20921;-78
2021/08/08 07:56:28;;;;;;;11.20;5.47;;;;;;;;;;5093462;28;20526;-77
2021/08/08 07:58:56;;;;;;;10.27;5.40;;;;;;;;;;5093636;28;21009;-78
2021/08/08 08:01:24;;;;;;;13.27;5.67;;;;;;;;;;5093579;28;20524;-77
2021/08/08 08:03:51;;;;;;;10.10;5.27;;;;;;;;;;5093465;28;20436;-79
2021/08/08 08:06:19;;;;;;;9.90;4.83;;;;;;;;;;5093416;28;20437;-78
2021/08/08 08:08:46;;;;;;;10.80;4.80;;;;;;;;;;5093614;28;20440;-78
2021/08/08 08:11:13;;;;;;;10.47;5.57;;;;;;;;;;5093665;28;20488;-74
2021/08/08 08:13:41;;;;;;;16.27;6.27;;;;;;;;;;5093325;28;21014;-78
2021/08/08 08:16:08;;;;;;;4.30;3.30;;;;;;;;;;5093380;28;20448;-77
2021/08/08 08:18:36;;;;;;;8.90;4.47;;;;;;;;;;5093273;28;20450;-78
2021/08/08 08:21:04;;;;;;;11.50;4.80;;;;;;;;;;5094117;28;20447;-78
2021/08/08 08:23:31;;;;;;;8.63;5.03;;;;;;;;;;5093177;28;20578;-77
2021/08/08 08:25:58;;;;;;;9.70;5.13;;;;;;;;;;5093540;28;20438;-79
2021/08/08 08:28:29;;;;;;;13.33;4.93;;;;;;;;;;5093773;28;20530;-82
2021/08/08 08:30:56;;;;;;;10.07;4.30;;;;;;;;;;5093929;28;20487;-84
2021/08/08 08:33:23;;;;;;;6.53;4.57;;;;;;;;;;5093676;28;20444;-79
2021/08/08 08:35:52;;;;;;;8.23;4.10;;;;;;;;;;5093635;28;20444;-79
2021/08/08 08:38:20;;;;;;;7.67;5.37;;;;;;;;;;5093208;28;20440;-81
2021/08/08 08:40:48;;;;;;;11.33;4.90;;;;;;;;;;5093804;28;20539;-83
2021/08/08 08:43:16;;;;;;;8.17;4.60;;;;;;;;;;5093311;28;20441;-78
2021/08/08 08:45:45;;;;;;;6.80;4.40;;;;;;;;;;5093391;28;20438;-81
2021/08/08 08:48:13;;;;;;;7.60;4.23;;;;;;;;;;5093451;28;20445;-81
2021/08/08 08:50:42;;;;;;;4.93;3.50;;;;;;;;;;5097418;28;20475;-81
2021/08/08 08:53:12;;;;;;;9.60;3.90;;;;;;;;;;5099918;28;20528;-75
2021/08/08 08:55:39;;;;;;;12.03;4.20;;;;;;;;;;5100647;28;20449;-79
2021/08/08 08:58:07;;;;;;;11.10;4.40;;;;;;;;;;5113155;28;20439;-79
2021/08/08 09:00:34;;;;;;;10.67;3.90;;;;;;;;;;5113397;28;20532;-84
2021/08/08 09:03:02;;;;;;;7.47;4.07;;;;;;;;;;5113398;28;20462;-83
2021/08/08 09:05:30;;;;;;;6.10;4.33;;;;;;;;;;5113234;28;20474;-81
2021/08/08 09:07:58;;;;;;;6.87;4.37;;;;;;;;;;5115215;28;20478;-75
2021/08/08 09:10:27;;;;;;;9.13;4.70;;;;;;;;;;5116676;28;20909;-84
2021/08/08 09:12:58;;;;;;;7.40;4.30;;;;;;;;;;5117065;28;20462;-79
2021/08/08 09:15:35;;;;;;;16.30;4.30;;;;;;;;;;5117371;28;20437;-81
2021/08/08 09:18:12;;;;;;;7.53;4.60;;;;;;;;;;5117458;28;20447;-81
2021/08/08 09:20:40;;;;;;;10.17;4.60;;;;;;;;;;5106691;28;20547;-82
2021/08/08 09:23:07;;;;;;;12.10;4.43;;;;;;;;;;5096410;28;20550;-81
2021/08/08 09:25:37;;;;;;;6.87;4.90;;;;;;;;;;5097247;28;20446;-83
2021/08/08 09:28:09;;;;;;;16.90;4.57;;;;;;;;;;5096645;28;20432;-78
2021/08/08 09:30:39;;;;;;;5.80;4.43;;;;;;;;;;5096344;28;20476;-82
2021/08/08 09:33:07;;;;;;;9.07;4.77;;;;;;;;;;5096833;28;20851;-84
2021/08/08 09:35:35;;;;;;;7.07;4.70;;;;;;;;;;5096746;28;20437;-82
2021/08/08 09:38:02;;;;;;;9.93;4.23;;;;;;;;;;5098254;28;20448;-80
2021/08/08 09:40:31;;;;;;;6.93;4.27;;;;;;;;;;5097057;28;20523;-83
2021/08/08 09:43:00;;;;;;;9.93;4.77;;;;;;;;;;5101303;28;20791;-80
2021/08/08 09:45:40;;;;;;;11.70;6.07;;;;;;;;;;5116537;28;20549;-74
2021/08/08 09:48:09;;;;;;;7.77;4.37;;;;;;;;;;5116820;28;20490;-87
2021/08/08 09:50:36;;;;;;;7.37;3.57;;;;;;;;;;5116840;28;20441;-80
2021/08/08 09:53:04;;;;;;;7.00;3.57;;;;;;;;;;5116949;28;20816;-79
2021/08/08 09:55:33;;;;;;;8.87;3.90;;;;;;;;;;5116667;28;20481;-84
2021/08/08 09:58:02;;;;;;;4.50;3.37;;;;;;;;;;5117315;28;20799;-73
2021/08/08 10:00:33;;;;;;;6.03;4.13;;;;;;;;;;5116065;28;20942;-84
2021/08/08 10:03:01;;;;;;;6.50;3.40;;;;;;;;;;5116189;28;20431;-78
2021/08/08 10:05:29;;;;;;;7.90;3.83;;;;;;;;;;5117058;28;20435;-89
2021/08/08 10:07:57;;;;;;;6.30;4.10;;;;;;;;;;5116876;28;20448;-80
2021/08/08 10:10:24;;;;;;;9.23;3.80;;;;;;;;;;5116338;28;20483;-85
2021/08/08 10:12:59;;;;;;;8.87;4.67;;;;;;;;;;5101587;28;20462;-86
2021/08/08 10:15:28;;;;;;;7.67;3.67;;;;;;;;;;5096410;28;20432;-82
2021/08/08 10:17:57;;;;;;;5.93;3.40;;;;;;;;;;5095390;28;20471;-85
2021/08/08 10:20:24;;;;;;;6.33;3.53;;;;;;;;;;5096101;28;20447;-87
2021/08/08 10:22:55;;;;;;;6.90;3.57;;;;;;;;;;5095890;28;20450;-84
2021/08/08 10:25:22;;;;;;;8.60;3.40;;;;;;;;;;5095531;28;20450;-79
2021/08/08 10:27:49;;;;;;;14.20;3.80;;;;;;;;;;5096003;28;20483;-78
2021/08/08 10:30:16;;;;;;;5.50;3.00;;;;;;;;;;5095862;28;20451;-78
2021/08/08 10:32:45;;;;;;;6.00;3.43;;;;;;;;;;5095590;28;20572;-86
2021/08/08 10:35:13;;;;;;;7.53;4.00;;;;;;;;;;5096189;28;20519;-87
2021/08/08 10:37:41;;;;;;;5.10;3.07;;;;;;;;;;5096894;28;20452;-83
2021/08/08 10:40:09;;;;;;;5.37;2.57;;;;;;;;;;5096473;28;20444;-78
2021/08/08 10:42:41;;;;;;;8.50;3.17;;;;;;;;;;5095365;28;20455;-78
2021/08/08 10:45:09;;;;;;;6.17;3.37;;;;;;;;;;5096150;28;20433;-80
2021/08/08 10:47:37;;;;;;;14.33;3.63;;;;;;;;;;5096860;28;20523;-85
2021/08/08 10:50:12;;;;;;;10.03;3.57;;;;;;;;;;5095802;28;20531;-85
2021/08/08 10:52:40;;;;;;;6.57;3.40;;;;;;;;;;5095880;28;20478;-83
2021/08/08 10:55:08;;;;;;;7.53;3.60;;;;;;;;;;5095443;28;20805;-82
2021/08/08 10:57:42;;;;;;;7.30;3.33;;;;;;;;;;5095870;28;20482;-85
2021/08/08 11:00:14;;;;;;;6.53;3.80;;;;;;;;;;5095622;28;20433;-79
2021/08/08 11:02:44;;;;;;;9.13;3.20;;;;;;;;;;5095918;28;20469;-87
2021/08/08 11:05:17;;;;;;;4.97;3.80;;;;;;;;;;5095077;28;20452;-81
2021/08/08 11:07:46;;;;;;;6.30;3.40;;;;;;;;;;5095268;28;20428;-83
2021/08/08 11:10:25;;;;;;;6.33;3.73;;;;;;;;;;5095333;28;20452;-85
2021/08/08 11:12:53;;;;;;;5.10;3.30;;;;;;;;;;5095772;28;20474;-85
2021/08/08 11:15:21;;;;;;;9.50;3.73;;;;;;;;;;5095063;28;20440;-82
2021/08/08 11:17:49;;;;;;;4.57;2.87;;;;;;;;;;5094762;28;20437;-76
2021/08/08 11:20:17;;;;;;;4.80;3.30;;;;;;;;;;5094649;28;20498;-84
2021/08/08 11:22:52;;;;;;;7.07;3.30;;;;;;;;;;5094901;28;20872;-82
2021/08/08 11:25:20;;;;;;;9.37;3.80;;;;;;;;;;5095386;28;20452;-81
2021/08/08 11:27:47;;;;;;;7.33;3.40;;;;;;;;;;5095054;28;20830;-79
2021/08/08 11:30:15;;;;;;;11.90;3.50;;;;;;;;;;5093604;28;20455;-81
2021/08/08 11:32:43;;;;;;;13.43;4.43;;;;;;;;;;5094481;28;20485;-83
2021/08/08 11:35:12;;;;;;;12.83;4.07;;;;;;;;;;5094652;28;20496;-81
2021/08/08 11:37:44;;;;;;;8.37;3.50;;;;;;;;;;5094650;28;20446;-82
2021/08/08 11:40:21;;;;;;;7.10;3.53;;;;;;;;;;5094378;28;20463;-82
2021/08/08 11:42:48;;;;;;;6.70;2.80;;;;;;;;;;5094841;28;20424;-77
2021/08/08 11:45:16;;;;;;;7.60;2.87;;;;;;;;;;5094549;28;20438;-83
2021/08/08 11:47:43;;;;;;;14.07;3.80;;;;;;;;;;5094039;28;20437;-79
2021/08/08 11:50:10;;;;;;;6.03;3.83;;;;;;;;;;5094319;28;20507;-79
2021/08/08 11:52:37;;;;;;;6.60;3.10;;;;;;;;;;5093876;28;20478;-84
2021/08/08 11:55:12;;;;;;;5.57;3.07;;;;;;;;;;5094578;28;20492;-84
2021/08/08 11:57:39;;;;;;;8.90;3.50;;;;;;;;;;5094277;28;20429;-82
2021/08/08 12:00:10;;;;;;;10.37;3.30;;;;;;;;;;5094493;28;20443;-81
2021/08/08 12:02:37;;;;;;;5.10;3.20;;;;;;;;;;5094508;28;20469;-77
2021/08/08 12:05:05;;;;;;;6.60;2.80;;;;;;;;;;5093971;28;20982;-81
2021/08/08 12:07:33;;;;;;;10.50;3.87;;;;;;;;;;5093657;28;20459;-85
2021/08/08 12:10:02;;;;;;;11.70;4.50;;;;;;;;;;5094080;28;20445;-71
2021/08/08 12:12:41;;;;;;;5.97;3.60;;;;;;;;;;5093864;28;20504;-82
2021/08/08 12:15:09;;;;;;;5.10;2.87;;;;;;;;;;5094672;28;20440;-82
2021/08/08 12:17:36;;;;;;;5.50;3.10;;;;;;;;;;5101898;28;20495;-80
2021/08/08 12:20:10;;;;;;;3.00;2.80;;;;;;;;;;5098099;28;20460;-85
2021/08/08 12:22:37;;;;;;;6.77;3.50;;;;;;;;;;5093472;28;20951;-78
2021/08/08 12:25:06;;;;;;;6.00;3.30;;;;;;;;;;5093992;28;20866;-81
2021/08/08 12:27:34;;;;;;;7.00;3.27;;;;;;;;;;5094027;28;20509;-82
2021/08/08 12:30:03;;;;;;;6.13;2.73;;;;;;;;;;5093237;28;20450;-79
2021/08/08 12:32:33;;;;;;;6.93;3.13;;;;;;;;;;5093446;28;20917;-80
2021/08/08 12:35:06;;;;;;;6.43;3.30;;;;;;;;;;5093371;28;20418;-80
2021/08/08 12:37:34;;;;;;;5.07;3.10;;;;;;;;;;5094155;28;20790;-76
2021/08/08 12:40:09;;;;;;;10.43;3.13;;;;;;;;;;5093597;28;20539;-81
2021/08/08 12:42:36;;;;;;;9.60;3.90;;;;;;;;;;5096187;28;20445;-81
2021/08/08 12:45:12;;;;;;;5.10;3.70;;;;;;;;;;5097795;28;20480;-75
2021/08/08 12:47:40;;;;;;;5.17;3.10;;;;;;;;;;5097721;28;20534;-74
2021/08/08 12:50:15;;;;;;;5.30;3.10;;;;;;;;;;5097494;28;20855;-77
2021/08/08 12:52:42;;;;;;;9.13;3.17;;;;;;;;;;5097364;28;20516;-74
2021/08/08 12:55:10;;;;;;;3.40;3.10;;;;;;;;;;5097133;28;20453;-74
2021/08/08 12:57:37;;;;;;;8.47;2.93;;;;;;;;;;5117351;28;20446;-77
2021/08/08 13:00:05;;;;;;;5.23;2.97;;;;;;;;;;5117716;28;20436;-75
2021/08/08 13:02:33;;;;;;;7.90;3.80;;;;;;;;;;5117906;28;20500;-75
2021/08/08 13:05:00;;;;;;;8.83;3.33;;;;;;;;;;5118167;28;20515;-74
2021/08/08 13:07:28;;;;;;;7.10;3.50;;;;;;;;;;5117800;28;20439;-73
2021/08/08 13:09:55;;;;;;;5.50;3.13;;;;;;;;;;5117211;28;20449;-75
2021/08/08 13:12:23;;;;;;;4.77;2.93;;;;;;;;;;5117471;28;20482;-75
2021/08/08 13:14:50;;;;;;;5.40;2.50;;;;;;;;;;5117300;28;20472;-76
2021/08/08 13:17:17;;;;;;;5.40;3.20;;;;;;;;;;5117542;28;20447;-79
2021/08/08 13:19:46;;;;;;;6.10;2.97;;;;;;;;;;5117142;28;20953;-77
2021/08/08 13:22:13;;;;;;;6.90;2.80;;;;;;;;;;5099187;28;20491;-75
2021/08/08 13:24:40;;;;;;;8.70;2.80;;;;;;;;;;5096653;28;20463;-74
2021/08/08 13:27:07;;;;;;;5.00;2.37;;;;;;;;;;5097043;28;20456;-79
2021/08/08 13:29:34;;;;;;;4.43;3.17;;;;;;;;;;5096774;28;20801;-73
2021/08/08 13:32:02;;;;;;;6.07;2.57;;;;;;;;;;5097150;28;20569;-77
2021/08/08 13:34:29;;;;;;;8.10;3.03;;;;;;;;;;5096372;28;20528;-79
2021/08/08 13:36:58;;;;;;;4.80;2.63;;;;;;;;;;5096784;28;20446;-76
2021/08/08 13:39:25;;;;;;;5.07;2.80;;;;;;;;;;5096620;28;20528;-74
2021/08/08 13:41:52;;;;;;;4.40;2.63;;;;;;;;;;5096572;28;20896;-76
2021/08/08 13:44:20;;;;;;;4.10;2.50;;;;;;;;;;5096712;28;20450;-77
2021/08/08 13:46:47;;;;;;;6.93;5.27;;;;;;;;;;5096439;28;20474;-76
2021/08/08 13:49:14;;;;;;;4.97;2.37;;;;;;;;;;5096634;28;20444;-75
2021/08/08 13:51:41;;;;;;;3.60;2.60;;;;;;;;;;5095981;28;20543;-76
2021/08/08 13:54:10;;;;;;;4.97;2.27;;;;;;;;;;5095972;28;20454;-85
2021/08/08 13:56:38;;;;;;;6.20;3.00;;;;;;;;;;5096244;28;20439;-73
2021/08/08 13:59:05;;;;;;;2.60;2.40;;;;;;;;;;5096192;28;20475;-72
2021/08/08 14:01:33;;;;;;;8.53;3.03;;;;;;;;;;5095919;28;20467;-78
2021/08/08 14:04:00;;;;;;;4.37;2.43;;;;;;;;;;5096049;28;20530;-75
2021/08/08 14:06:27;;;;;;;4.43;2.77;;;;;;;;;;5096023;28;20436;-73
2021/08/08 14:08:55;;;;;;;4.50;2.63;;;;;;;;;;5096165;28;20443;-73
2021/08/08 14:11:23;;;;;;;7.30;2.23;;;;;;;;;;5095656;28;20924;-73
2021/08/08 14:13:50;;;;;;;5.40;2.27;;;;;;;;;;5095846;28;20490;-73
2021/08/08 14:16:18;;;;;;;6.10;2.77;;;;;;;;;;5096170;28;20459;-72
2021/08/08 14:18:45;;;;;;;3.90;1.73;;;;;;;;;;5095924;28;20503;-74
2021/08/08 14:21:12;;;;;;;5.20;2.83;;;;;;;;;;5095915;28;20441;-69
2021/08/08 14:23:40;;;;;;;3.07;1.90;;;;;;;;;;5095612;28;20562;-73
2021/08/08 14:26:07;;;;;;;3.40;2.10;;;;;;;;;;5095820;28;20457;-75
2021/08/08 14:28:36;;;;;;;5.10;2.30;;;;;;;;;;5095822;28;20442;-75
2021/08/08 14:31:03;;;;;;;3.13;2.20;;;;;;;;;;5095382;28;20867;-73
2021/08/08 14:33:30;;;;;;;2.90;2.20;;;;;;;;;;5095549;28;20563;-74
2021/08/08 14:36:06;;;;;;;6.47;2.60;;;;;;;;;;5095454;28;20442;-73
2021/08/08 14:38:34;;;;;;;3.90;1.70;;;;;;;;;;5095219;28;20494;-75
2021/08/08 14:41:01;;;;;;;2.70;2.07;;;;;;;;;;5095814;28;20495;-73
2021/08/08 14:43:28;;;;;;;3.50;2.30;;;;;;;;;;5095393;28;20449;-75
2021/08/08 14:45:57;;;;;;;4.17;2.30;;;;;;;;;;5095191;28;20442;-75